createdAt,value
2016-12-07T00:01:09.114Z,33.7
2016-12-07T00:06:13.532Z,33.6
2016-12-07T00:11:17.603Z,33.6
2016-12-07T00:16:22.027Z,33.6
2016-12-07T00:21:26.456Z,33.5
2016-12-07T00:26:30.547Z,33.5
2016-12-07T00:31:34.980Z,33.4
2016-12-07T00:36:39.077Z,33.4
2016-12-07T00:41:43.159Z,33.3
2016-12-07T00:46:47.579Z,33.3
2016-12-07T00:51:51.661Z,33.3
2016-12-07T00:56:56.415Z,33.3
2016-12-07T01:02:00.499Z,33.3
2016-12-07T01:07:04.591Z,33.1
2016-12-07T01:12:09.013Z,33.2
2016-12-07T01:17:13.104Z,33.1
2016-12-07T01:22:17.198Z,33
2016-12-07T01:27:21.287Z,33
2016-12-07T01:32:25.715Z,33.1
2016-12-07T01:37:30.138Z,33
2016-12-07T01:42:34.901Z,32.9
2016-12-07T01:47:39.331Z,32.9
2016-12-07T01:52:43.421Z,32.8
2016-12-07T01:57:47.508Z,32.8
2016-12-07T02:02:51.609Z,32.7
2016-12-07T02:07:56.029Z,32.7
2016-12-07T02:13:00.110Z,32.7
2016-12-07T02:18:04.859Z,32.7
2016-12-07T02:23:08.940Z,32.7
2016-12-07T02:28:13.021Z,32.6
2016-12-07T02:33:17.439Z,32.6
2016-12-07T02:38:21.514Z,32.7
2016-12-07T02:43:25.935Z,32.6
2016-12-07T02:48:30.353Z,32.6
2016-12-07T02:53:34.437Z,32.5
2016-12-07T02:58:38.522Z,32.5
2016-12-07T03:03:43.611Z,32.5
2016-12-07T03:08:47.693Z,32.4
2016-12-07T03:13:51.772Z,32.4
2016-12-07T03:18:56.201Z,32.4
2016-12-07T03:24:00.283Z,32.4
2016-12-07T03:29:04.699Z,32.3
2016-12-07T03:34:08.781Z,32.3
2016-12-07T03:39:12.862Z,32.2
2016-12-07T03:44:16.944Z,32.2
2016-12-07T03:49:21.026Z,32.2
2016-12-07T03:54:25.106Z,32.1
2016-12-07T03:59:29.189Z,32.1
2016-12-07T04:04:33.276Z,32
2016-12-07T04:09:37.365Z,32
2016-12-07T04:14:41.781Z,31.9
2016-12-07T04:19:45.871Z,32
2016-12-07T04:24:49.961Z,32
2016-12-07T04:29:54.399Z,32
2016-12-07T04:34:58.497Z,32
2016-12-07T04:40:02.915Z,32
2016-12-07T04:45:07.333Z,32
2016-12-07T04:50:11.410Z,32
2016-12-07T04:55:15.834Z,32
2016-12-07T05:00:19.920Z,31.9
2016-12-07T05:05:24.343Z,31.9
2016-12-07T05:10:28.426Z,31.9
2016-12-07T05:15:33.075Z,31.9
2016-12-07T05:20:37.826Z,32.3
2016-12-07T05:25:41.913Z,32.3
2016-12-07T05:30:46.326Z,32.3
2016-12-07T05:35:50.771Z,32.3
2016-12-07T05:40:55.196Z,32.4
2016-12-07T05:45:59.820Z,32.8
2016-12-07T05:51:04.572Z,32.9
2016-12-07T05:56:08.680Z,33.6
2016-12-07T06:01:12.758Z,34.5
2016-12-07T06:06:16.843Z,34.8
2016-12-07T06:11:21.271Z,34.9
2016-12-07T06:16:25.354Z,35.4
2016-12-07T06:21:29.440Z,34.9
2016-12-07T06:26:33.523Z,34.8
2016-12-07T06:31:38.313Z,34.2
2016-12-07T06:36:42.398Z,34.1
2016-12-07T06:41:46.490Z,33.9
2016-12-07T06:46:50.908Z,33.7
2016-12-07T06:51:55.334Z,33.1
2016-12-07T06:56:59.419Z,32.7
2016-12-07T07:02:03.501Z,32.5
2016-12-07T07:07:08.259Z,32.5
2016-12-07T07:12:12.340Z,32.5
2016-12-07T07:17:16.426Z,32.5
2016-12-07T07:22:20.839Z,32.7
2016-12-07T07:27:24.925Z,32.7
2016-12-07T07:32:29.345Z,32.7
2016-12-07T07:37:33.770Z,32.7
2016-12-07T07:42:37.858Z,32.7
2016-12-07T07:47:41.948Z,32.7
2016-12-07T07:52:46.025Z,32.7
2016-12-07T07:57:50.447Z,32.8
2016-12-07T08:02:54.533Z,32.8
2016-12-07T08:07:58.621Z,32.8
2016-12-07T08:13:03.379Z,32.8
2016-12-07T08:18:08.130Z,32.8
2016-12-07T08:23:12.544Z,32.8
2016-12-07T08:28:16.629Z,32.8
2016-12-07T08:33:21.046Z,32.8
2016-12-07T08:38:25.472Z,32.8
2016-12-07T08:43:29.556Z,32.8
2016-12-07T08:48:33.982Z,32.7
2016-12-07T08:53:38.066Z,32.7
2016-12-07T08:58:42.159Z,32.7
2016-12-07T09:03:46.245Z,32.7
2016-12-07T09:08:50.332Z,32.6
2016-12-07T09:13:55.087Z,32.6
2016-12-07T09:18:59.505Z,32.6
2016-12-07T09:24:03.594Z,32.6
2016-12-07T09:29:08.349Z,32.6
2016-12-07T09:34:13.106Z,32.6
2016-12-07T09:39:17.193Z,32.7
2016-12-07T09:44:21.276Z,32.7
2016-12-07T09:49:25.358Z,32.7
2016-12-07T09:54:30.112Z,32.7
2016-12-07T09:59:34.535Z,32.7
2016-12-07T10:04:38.632Z,32.7
2016-12-07T10:09:43.060Z,32.6
2016-12-07T10:14:47.486Z,32.6
2016-12-07T10:19:52.243Z,32.5
2016-12-07T10:24:56.330Z,32.5
2016-12-07T10:30:01.087Z,32.5
2016-12-07T10:35:05.189Z,32.5
2016-12-07T10:40:09.281Z,32.5
2016-12-07T10:45:13.704Z,32.5
2016-12-07T10:50:17.785Z,32.5
2016-12-07T10:55:21.865Z,32.6
2016-12-07T11:00:25.951Z,32.6
2016-12-07T11:05:30.376Z,32.6
2016-12-07T11:10:34.462Z,32.6
2016-12-07T11:15:38.884Z,32.6
2016-12-07T11:20:42.972Z,32.6
2016-12-07T11:25:47.053Z,32.6
2016-12-07T11:30:51.142Z,32.6
2016-12-07T11:35:55.234Z,32.6
2016-12-07T11:40:59.421Z,32.6
2016-12-07T11:46:03.509Z,32.6
2016-12-07T11:51:07.606Z,32.6
2016-12-07T11:56:12.020Z,32.6
2016-12-07T12:01:16.109Z,32.7
2016-12-07T12:06:20.205Z,32.7
2016-12-07T12:11:24.297Z,32.7
2016-12-07T12:16:28.717Z,32.7
2016-12-07T12:21:32.801Z,32.7
2016-12-07T12:26:36.894Z,32.7
2016-12-07T12:31:40.979Z,32.8
2016-12-07T12:36:45.398Z,32.8
2016-12-07T12:41:49.816Z,32.8
2016-12-07T12:46:54.288Z,32.7
2016-12-07T12:51:58.375Z,32.8
2016-12-07T12:57:03.161Z,33
2016-12-07T13:02:07.913Z,33.6
2016-12-07T13:07:11.996Z,33.9
2016-12-07T13:12:16.097Z,34.3
2016-12-07T13:17:20.429Z,34.5
2016-12-07T13:22:24.963Z,34.5
2016-12-07T13:27:29.092Z,34.7
2016-12-07T13:32:33.237Z,34.8
2016-12-07T13:37:37.315Z,34.7
2016-12-07T13:42:41.698Z,34.6
2016-12-07T13:47:45.867Z,34.6
2016-12-07T13:52:49.950Z,34.6
2016-12-07T13:57:54.370Z,34.5
2016-12-07T14:02:58.457Z,34.4
2016-12-07T14:08:02.544Z,34.4
2016-12-07T14:13:07.632Z,34.4
2016-12-07T14:18:11.711Z,34.4
2016-12-07T14:23:15.818Z,34.4
2016-12-07T14:28:20.369Z,34.5
2016-12-07T14:33:24.523Z,34.4
2016-12-07T14:38:28.978Z,34.3
2016-12-07T14:43:33.067Z,34.2
2016-12-07T14:48:37.827Z,34.2
2016-12-07T14:53:42.326Z,34.1
2016-12-07T14:58:46.412Z,34.1
2016-12-07T15:03:50.499Z,34.1
2016-12-07T15:08:54.587Z,34.1
2016-12-07T15:13:58.677Z,34.7
2016-12-07T15:19:02.917Z,34.9
2016-12-07T15:24:07.024Z,34.8
2016-12-07T15:29:11.443Z,35.1
2016-12-07T15:34:15.877Z,35.5
2016-12-07T15:39:19.993Z,35.6
2016-12-07T15:44:24.089Z,35.5
2016-12-07T15:49:28.168Z,35.2
2016-12-07T15:54:32.255Z,35
2016-12-07T15:59:36.392Z,34.8
2016-12-07T16:04:41.157Z,34.3
2016-12-07T16:09:46.258Z,34
2016-12-07T16:14:50.346Z,33.8
2016-12-07T16:19:54.760Z,33.7
2016-12-07T16:24:58.840Z,33.9
2016-12-07T16:30:02.928Z,33.9
2016-12-07T16:35:07.368Z,33.8
2016-12-07T16:40:11.804Z,33.7
2016-12-07T16:45:16.574Z,33.7
2016-12-07T16:50:20.999Z,33.7
2016-12-07T16:55:25.082Z,33.7
2016-12-07T17:00:29.163Z,33.7
2016-12-07T17:05:33.251Z,33.7
2016-12-07T17:10:37.337Z,33.8
2016-12-07T17:15:41.761Z,34.2
2016-12-07T17:20:46.854Z,34.6
2016-12-07T17:25:51.272Z,34.7
2016-12-07T17:30:55.358Z,34.7
2016-12-07T17:35:59.779Z,34.7
2016-12-07T17:41:03.857Z,34.6
2016-12-07T17:46:07.942Z,34.4
2016-12-07T17:51:12.360Z,34.3
2016-12-07T17:56:16.446Z,34.3
2016-12-07T18:01:20.525Z,34.3
2016-12-07T18:06:24.945Z,34.2
2016-12-07T18:11:29.366Z,34.2
2016-12-07T18:16:33.791Z,34.2
2016-12-07T18:21:38.217Z,34.5
2016-12-07T18:26:42.300Z,34.2
2016-12-07T18:31:47.062Z,34.1
2016-12-07T18:36:51.167Z,34.1
2016-12-07T18:41:55.242Z,34.1
2016-12-07T18:47:00.670Z,34.2
2016-12-07T18:52:04.752Z,34
2016-12-07T18:57:08.835Z,33.8
2016-12-07T19:02:13.592Z,33.8
2016-12-07T19:07:17.984Z,33.7
2016-12-07T19:12:22.385Z,33.9
2016-12-07T19:17:26.806Z,34.2
2016-12-07T19:22:31.223Z,34.1
2016-12-07T19:27:35.994Z,34.1
2016-12-07T19:32:40.078Z,34.2
2016-12-07T19:37:44.186Z,34.2
2016-12-07T19:42:48.609Z,34.2
2016-12-07T19:47:52.686Z,34.2
2016-12-07T19:52:56.770Z,34.3
2016-12-07T19:58:00.865Z,34.3
2016-12-07T20:03:04.954Z,34.3
2016-12-07T20:08:09.371Z,34.4
2016-12-07T20:13:13.796Z,35.5
2016-12-07T20:18:18.217Z,35.4
2016-12-07T20:23:22.299Z,35.9
2016-12-07T20:28:26.719Z,35.6
2016-12-07T20:33:30.813Z,35.5
2016-12-07T20:38:34.914Z,35.4
2016-12-07T20:43:39.694Z,35.6
2016-12-07T20:48:43.777Z,35.7
2016-12-07T20:53:47.861Z,35.8
2016-12-07T20:58:52.290Z,35.9
2016-12-07T21:03:56.396Z,35.9
2016-12-07T21:09:00.488Z,35.9
2016-12-07T21:14:04.576Z,36
2016-12-07T21:19:09.008Z,36
2016-12-07T21:24:13.103Z,36
2016-12-07T21:29:17.185Z,36
2016-12-07T21:34:21.616Z,36
2016-12-07T21:39:26.377Z,36
2016-12-07T21:44:30.535Z,36
2016-12-07T21:49:34.962Z,35.9
2016-12-07T21:54:39.061Z,36
2016-12-07T21:59:43.148Z,35.9
2016-12-07T22:04:47.561Z,35.9
2016-12-07T22:09:51.651Z,35.8
2016-12-07T22:14:55.747Z,35.9
2016-12-07T22:20:00.512Z,36.3
2016-12-07T22:25:04.615Z,36.1
2016-12-07T22:30:09.033Z,35.9
2016-12-07T22:35:13.798Z,35.8
2016-12-07T22:40:17.880Z,35.8
2016-12-07T22:45:21.968Z,35.7
2016-12-07T22:50:26.391Z,35.7
2016-12-07T22:55:30.486Z,35.7
2016-12-07T23:00:35.292Z,35.6
2016-12-07T23:05:39.372Z,35.5
2016-12-07T23:10:43.457Z,35.4
2016-12-07T23:15:47.549Z,35.5
2016-12-07T23:20:51.635Z,35.4
2016-12-07T23:25:56.057Z,35.3
2016-12-07T23:31:00.149Z,35.3
2016-12-07T23:36:04.239Z,35.3
2016-12-07T23:41:08.318Z,35.1
2016-12-07T23:46:13.081Z,35.2
2016-12-07T23:51:17.500Z,35.3
2016-12-07T23:56:21.916Z,35.2
